메인 페이지
METAR-TAF:

METAR-TAF

공항 :

마나우스, 아마조나스, 브라질

위도: 03-09S, 경도: 059-59W, 고도: 84m

현재 날씨관측

예보는 1 시간 9분 전, 20:00시(UTC)에 발표되었습니다.
2kt
온도 33°C
습도 49%
기압 1011 hPa
시정 10km 이상
고도 2500ft 상공 구름 조금

METAR: SBMN 202000Z 10002KT 9999 FEW025 33/21 Q1011

시각: 17:09 (21:09 UTC)

예보

예보는 6 시간 9분 전, 15:00시(UTC)에 발표되었습니다.
예보 대상 시간: 20일 18시부터 21일 06시까지 (UTC)
2kt
시정 10km 이상
고도 2000ft 상공 구름 보통

TAF: SBMN 201500Z 2018/2106 10002KT 9999 SCT020 TX33/2018Z TN26/2106Z RMK PFP

4,000개 이상의 공항 관측 자료 및 예보 (METAR 및 TAF 보고).

지도상에서 검색 가능한 기상관측소가 노란 점과 빨간 점으로 표시되어 있습니다.

기상관측소 명을 보려면 표시 위로 마우스를 이동하세요.

날씨 관측과 예보를 보려면 클릭하세요.

지도 변경 : 확대하려면 엑스 표시가 있는 녹색 버튼, 축소하려면 빼기 표시가 있는 녹색 버튼, 다음 페이지의 지도를 보려면 녹색 화살표를 클릭하세요.


METAR-TAF: